Vacarisses (Vallès Occidental)





Hora UTC 21:25
Temperatura 25.0 ºC
Humedad 63.0 %
Presión 1016.0 hPa
Pluja 0.0 mm
Velocidad viento 7.9 km/h
Dirección viento

Datos diarios 2024-07-24



Hora UTC (invierno +1h; verano +2h)
Temperatura (ºC) Humedad (%) Presión (hPa) Velocidad viento (km/h) Precipitación (mm)
Hora UTC Aire Humedad Presión Vel. Dir. Vel. Max Dir. Intent. máx 5 min.
00:05 23.1 64.0 1020.1 3.9 3.9 0.0
00:15 22.4 65.0 1019.8 2.0 8.8 0.0
00:25 21.9 65.0 1019.8 2.4 8.8 0.0
00:35 21.9 65.0 1019.8 2.4 8.8 0.0
00:45 21.3 66.0 1019.7 2.0 8.8 0.0
00:55 21.2 66.0 1019.8 2.8 8.8 0.0
01:05 21.2 66.0 1019.8 2.8 8.8 0.0
01:15 20.7 68.0 1019.9 1.6 8.8 0.0
01:25 20.3 69.0 1019.9 3.0 8.8 0.0
01:35 20.3 69.0 1019.9 3.0 8.8 0.0
01:45 20.1 70.0 1019.7 1.6 8.8 0.0
01:55 19.9 70.0 1019.8 1.8 8.8 0.0
02:05 19.9 70.0 1019.8 1.8 8.8 0.0
02:15 19.5 72.0 1019.5 2.9 8.8 0.0
02:25 19.4 73.0 1019.4 2.0 8.8 0.0
02:35 19.4 73.0 1019.4 2.0 8.8 0.0
02:45 19.5 75.0 1019.4 2.9 8.8 0.0
02:55 19.5 74.0 1019.4 1.6 8.8 0.0
03:05 19.5 74.0 1019.4 1.6 8.8 0.0
03:15 19.2 76.0 1019.4 3.2 8.8 0.0
03:25 19.2 77.0 1019.5 3.2 8.8 0.0
03:35 19.2 77.0 1019.5 3.2 8.8 0.0
03:45 18.9 77.0 1019.4 2.7 8.8 0.0
03:55 18.8 78.0 1019.3 3.6 8.8 0.0
04:05 18.8 78.0 1019.3 3.6 8.8 0.0
04:15 19.1 79.0 1019.3 3.2 8.8 0.0
04:25 18.7 79.0 1019.4 1.6 8.8 0.0
04:35 18.7 79.0 1019.4 1.6 8.8 0.0
04:45 18.6 80.0 1019.4 1.6 8.8 0.0
04:55 18.4 80.0 1019.4 0.7 8.8 0.0
05:05 18.4 80.0 1019.4 0.7 8.8 0.0
05:15 18.4 80.0 1019.4 1.6 8.8 0.0
05:25 18.4 81.0 1019.3 2.1 8.8 0.0
05:35 18.4 81.0 1019.3 2.1 8.8 0.0
05:45 19.6 78.0 1019.5 1.6 8.8 0.0
05:55 20.6 77.0 1019.5 1.6 8.8 0.0
06:05 20.6 77.0 1019.5 1.6 8.8 0.0
06:15 21.2 74.0 1019.5 1.6 8.8 0.0
06:25 22.0 73.0 1019.6 2.6 8.8 0.0
06:35 22.0 73.0 1019.6 2.6 8.8 0.0
06:45 22.4 72.0 1019.5 3.8 8.8 0.0
06:55 22.5 72.0 1019.5 6.0 8.8 0.0
07:05 22.5 72.0 1019.5 6.0 8.8 0.0
07:15 23.3 70.0 1019.5 6.9 8.8 0.0
07:25 23.7 69.0 1019.5 7.4 8.8 0.0
07:35 23.7 69.0 1019.5 7.4 8.8 0.0
07:45 24.6 67.0 1019.4 5.5 8.8 0.0
07:55 24.9 67.0 1019.2 5.9 8.8 0.0
08:05 24.9 67.0 1019.2 5.9 8.8 0.0
08:15 26.6 62.0 1019.1 4.4 8.8 0.0
08:25 26.8 60.0 1019.1 5.2 8.8 0.0
08:35 26.8 60.0 1019.1 5.2 8.8 0.0
08:45 28.7 52.0 1018.6 5.0 8.8 0.0
08:55 29.5 35.0 1018.7 20.1 20.1 0.0
09:05 29.5 35.0 1018.7 20.1 20.9 0.0
09:15 29.7 39.0 1018.6 19.3 20.1 0.0
09:25 29.6 43.0 1018.5 18.2 20.1 0.0
09:35 29.6 43.0 1018.5 18.2 20.1 0.0
09:45 30.1 42.0 1018.4 20.1 20.1 0.0
09:55 30.6 40.0 1018.3 19.8 20.1 0.0
10:05 30.6 40.0 1018.3 19.8 20.1 0.0
10:15 31.2 41.0 1018.0 21.5 21.5 0.0
10:25 31.4 39.0 1017.9 24.4 24.4 0.0
10:35 31.4 39.0 1017.9 24.4 24.4 0.0
10:45 32.1 38.0 1017.7 22.8 24.4 0.0
10:55 32.2 37.0 1017.7 23.7 24.4 0.0
11:05 32.2 37.0 1017.7 23.7 25.0 0.0
11:15 32.7 38.0 1017.5 19.4 24.4 0.0
11:25 32.8 38.0 1017.5 21.1 24.4 0.0
11:35 32.8 38.0 1017.5 21.1 24.4 0.0
11:45 33.3 40.0 1017.1 18.6 24.4 0.0
11:55 33.0 40.0 1017.0 29.1 29.1 0.0
12:05 33.0 40.0 1017.0 29.1 29.1 0.0
12:15 33.1 41.0 1016.6 21.5 29.1 0.0
12:25 33.3 41.0 1016.6 19.5 29.1 0.0
12:35 33.3 41.0 1016.6 19.5 29.1 0.0
12:45 32.7 44.0 1016.3 27.8 29.1 0.0
12:55 33.0 43.0 1016.3 26.4 29.1 0.0
13:05 33.0 43.0 1016.3 26.4 33.1 0.0
13:15 32.9 44.0 1016.2 23.6 29.1 0.0
13:25 32.9 44.0 1016.1 27.0 29.1 0.0
13:35 32.9 44.0 1016.1 27.0 30.5 0.0
13:45 32.9 43.0 1015.9 30.9 30.9 0.0
13:55 32.8 42.0 1015.9 28.7 30.9 0.0
14:05 32.8 42.0 1015.9 28.7 35.3 0.0
14:15 32.3 42.0 1015.9 34.3 34.3 0.0
14:25 32.2 41.0 1015.8 31.5 34.3 0.0
14:35 32.2 41.0 1015.8 31.5 34.3 0.0
14:45 32.1 40.0 1015.7 32.1 34.3 0.0
14:55 32.7 40.0 1015.6 29.4 34.3 0.0
15:05 32.7 40.0 1015.6 29.4 34.3 0.0
15:15 32.1 39.0 1015.3 31.4 34.3 0.0
15:25 32.3 38.0 1015.4 26.7 34.3 0.0
15:35 32.3 38.0 1015.4 26.7 34.3 0.0
15:45 32.1 40.0 1015.1 29.3 34.3 0.0
15:55 31.6 34.0 1015.1 39.9 39.9 0.0
16:05 31.6 34.0 1015.1 39.9 39.9 0.0
16:15 31.6 33.0 1015.0 35.8 39.9 0.0
16:25 31.4 32.0 1015.0 31.1 39.9 0.0
16:35 31.4 32.0 1015.0 31.1 39.9 0.0
16:45 30.9 32.0 1014.9 33.5 39.9 0.0
16:55 31.0 31.0 1014.9 35.2 39.9 0.0
17:05 31.0 31.0 1014.9 35.2 39.9 0.0
17:15 30.6 35.0 1014.9 28.6 39.9 0.0
17:25 30.4 36.0 1014.9 35.0 39.9 0.0
17:35 30.4 36.0 1014.9 35.0 39.9 0.0
17:45 30.2 40.0 1014.9 26.3 39.9 0.0
17:55 29.9 41.0 1014.9 25.4 39.9 0.0
18:05 29.9 41.0 1014.9 25.4 39.9 0.0
18:15 29.5 44.0 1015.1 19.7 39.9 0.0
18:25 29.3 46.0 1015.3 16.7 39.9 0.0
18:35 29.3 46.0 1015.3 16.7 39.9 0.0
18:45 28.8 47.0 1015.5 19.3 39.9 0.0
18:55 28.3 49.0 1015.6 19.9 39.9 0.0
19:05 28.3 49.0 1015.6 19.9 39.9 0.0
19:15 27.6 52.0 1015.8 13.7 39.9 0.0
19:25 27.2 53.0 1015.7 14.3 39.9 0.0
19:35 27.2 53.0 1015.7 14.3 39.9 0.0
19:45 26.6 54.0 1015.7 15.4 39.9 0.0
19:55 26.5 55.0 1015.8 11.3 39.9 0.0
20:05 26.5 55.0 1015.8 11.3 39.9 0.0
20:15 26.1 56.0 1015.8 16.0 39.9 0.0
20:25 26.0 56.0 1015.9 18.8 39.9 0.0
20:35 26.0 56.0 1015.9 18.8 39.9 0.0
20:45 25.7 58.0 1016.0 13.0 39.9 0.0
20:55 25.4 59.0 1016.1 13.1 39.9 0.0
21:05 25.4 59.0 1016.1 13.1 39.9 0.0
21:15 25.2 62.0 1016.0 10.6 39.9 0.0
21:25 25.0 63.0 1016.0 7.9 39.9 0.0
Máxima 33.3 81.0 1020.1 39.9 39.9 0.0
Mínima 18.4 31.0 1014.9
Total 0.0